sensor_id;sensor_type;location;lat;lon;timestamp;P1;durP1;ratioP1;P2;durP2;ratioP2
74620;SDS011;64861;47.546;19.254;2023-04-24T00:00:00;37.53;;;17.42;;
74620;SDS011;64861;47.546;19.254;2023-04-24T00:02:30;38.83;;;16.90;;
74620;SDS011;64861;47.546;19.254;2023-04-24T00:04:56;43.50;;;17.95;;
74620;SDS011;64861;47.546;19.254;2023-04-24T00:07:22;38.50;;;16.88;;
74620;SDS011;64861;47.546;19.254;2023-04-24T00:09:47;42.42;;;16.98;;
74620;SDS011;64861;47.546;19.254;2023-04-24T00:12:13;39.95;;;16.73;;
74620;SDS011;64861;47.546;19.254;2023-04-24T00:14:38;35.97;;;15.60;;
74620;SDS011;64861;47.546;19.254;2023-04-24T00:17:04;36.95;;;16.17;;
74620;SDS011;64861;47.546;19.254;2023-04-24T00:19:30;39.65;;;16.67;;
74620;SDS011;64861;47.546;19.254;2023-04-24T00:21:55;38.38;;;16.73;;
74620;SDS011;64861;47.546;19.254;2023-04-24T00:24:21;30.58;;;14.75;;
74620;SDS011;64861;47.546;19.254;2023-04-24T00:26:46;33.40;;;15.52;;
74620;SDS011;64861;47.546;19.254;2023-04-24T00:29:12;32.95;;;15.43;;
74620;SDS011;64861;47.546;19.254;2023-04-24T00:31:37;37.30;;;15.77;;
74620;SDS011;64861;47.546;19.254;2023-04-24T00:34:03;34.25;;;14.90;;
74620;SDS011;64861;47.546;19.254;2023-04-24T00:36:29;31.98;;;14.60;;
74620;SDS011;64861;47.546;19.254;2023-04-24T00:38:55;36.97;;;15.57;;
74620;SDS011;64861;47.546;19.254;2023-04-24T00:41:21;30.52;;;13.60;;
74620;SDS011;64861;47.546;19.254;2023-04-24T00:43:47;30.60;;;14.18;;
74620;SDS011;64861;47.546;19.254;2023-04-24T00:46:13;33.17;;;14.85;;
74620;SDS011;64861;47.546;19.254;2023-04-24T00:48:39;31.13;;;13.35;;
74620;SDS011;64861;47.546;19.254;2023-04-24T00:51:05;29.75;;;12.75;;
74620;SDS011;64861;47.546;19.254;2023-04-24T00:53:31;30.17;;;13.82;;
74620;SDS011;64861;47.546;19.254;2023-04-24T00:55:57;24.25;;;12.10;;
74620;SDS011;64861;47.546;19.254;2023-04-24T00:58:23;28.60;;;12.25;;
74620;SDS011;64861;47.546;19.254;2023-04-24T01:00:50;30.42;;;12.90;;
74620;SDS011;64861;47.546;19.254;2023-04-24T01:03:18;25.90;;;12.48;;
74620;SDS011;64861;47.546;19.254;2023-04-24T01:05:46;26.10;;;12.18;;
74620;SDS011;64861;47.546;19.254;2023-04-24T01:08:13;26.05;;;12.02;;
74620;SDS011;64861;47.546;19.254;2023-04-24T01:10:40;25.33;;;11.60;;
74620;SDS011;64861;47.546;19.254;2023-04-24T01:13:06;26.48;;;12.20;;
74620;SDS011;64861;47.546;19.254;2023-04-24T01:15:33;25.50;;;11.68;;
74620;SDS011;64861;47.546;19.254;2023-04-24T01:17:59;26.02;;;11.75;;
74620;SDS011;64861;47.546;19.254;2023-04-24T01:20:25;24.05;;;10.15;;
74620;SDS011;64861;47.546;19.254;2023-04-24T01:22:51;25.77;;;11.75;;
74620;SDS011;64861;47.546;19.254;2023-04-24T01:25:18;25.48;;;11.13;;
74620;SDS011;64861;47.546;19.254;2023-04-24T01:27:43;21.55;;;10.40;;
74620;SDS011;64861;47.546;19.254;2023-04-24T01:30:09;22.92;;;10.07;;
74620;SDS011;64861;47.546;19.254;2023-04-24T01:32:36;25.42;;;11.10;;
74620;SDS011;64861;47.546;19.254;2023-04-24T01:35:02;19.05;;;9.20;;
74620;SDS011;64861;47.546;19.254;2023-04-24T01:37:28;20.70;;;10.55;;
74620;SDS011;64861;47.546;19.254;2023-04-24T01:39:54;22.27;;;10.18;;
74620;SDS011;64861;47.546;19.254;2023-04-24T01:42:19;21.40;;;10.07;;
74620;SDS011;64861;47.546;19.254;2023-04-24T01:44:45;19.42;;;9.32;;
74620;SDS011;64861;47.546;19.254;2023-04-24T01:47:11;18.23;;;9.63;;
74620;SDS011;64861;47.546;19.254;2023-04-24T01:49:38;20.98;;;9.85;;
74620;SDS011;64861;47.546;19.254;2023-04-24T01:52:03;21.05;;;9.73;;
74620;SDS011;64861;47.546;19.254;2023-04-24T01:54:29;19.02;;;8.90;;
74620;SDS011;64861;47.546;19.254;2023-04-24T01:56:55;20.85;;;9.05;;
74620;SDS011;64861;47.546;19.254;2023-04-24T01:59:20;17.45;;;9.13;;
74620;SDS011;64861;47.546;19.254;2023-04-24T02:01:48;17.23;;;8.75;;
74620;SDS011;64861;47.546;19.254;2023-04-24T02:04:13;19.40;;;9.23;;
74620;SDS011;64861;47.546;19.254;2023-04-24T02:06:40;19.10;;;9.02;;
74620;SDS011;64861;47.546;19.254;2023-04-24T02:09:06;18.15;;;8.80;;
74620;SDS011;64861;47.546;19.254;2023-04-24T02:11:31;18.00;;;8.38;;
74620;SDS011;64861;47.546;19.254;2023-04-24T02:13:57;17.20;;;8.38;;
74620;SDS011;64861;47.546;19.254;2023-04-24T02:16:22;17.02;;;8.52;;
74620;SDS011;64861;47.546;19.254;2023-04-24T02:18:48;18.25;;;8.77;;
74620;SDS011;64861;47.546;19.254;2023-04-24T02:21:13;20.45;;;8.90;;
74620;SDS011;64861;47.546;19.254;2023-04-24T02:23:39;19.75;;;8.30;;
74620;SDS011;64861;47.546;19.254;2023-04-24T02:26:05;18.80;;;8.02;;
74620;SDS011;64861;47.546;19.254;2023-04-24T02:28:30;15.82;;;7.20;;
74620;SDS011;64861;47.546;19.254;2023-04-24T02:30:56;16.73;;;7.95;;
74620;SDS011;64861;47.546;19.254;2023-04-24T02:33:21;14.35;;;7.38;;
74620;SDS011;64861;47.546;19.254;2023-04-24T02:35:47;15.57;;;7.97;;
74620;SDS011;64861;47.546;19.254;2023-04-24T02:38:12;16.88;;;7.28;;
74620;SDS011;64861;47.546;19.254;2023-04-24T02:40:38;16.10;;;7.22;;
74620;SDS011;64861;47.546;19.254;2023-04-24T02:43:03;16.02;;;7.10;;
74620;SDS011;64861;47.546;19.254;2023-04-24T02:45:29;13.32;;;6.93;;
74620;SDS011;64861;47.546;19.254;2023-04-24T02:47:54;14.80;;;7.13;;
74620;SDS011;64861;47.546;19.254;2023-04-24T02:50:20;14.75;;;6.97;;
74620;SDS011;64861;47.546;19.254;2023-04-24T02:52:45;14.15;;;6.65;;
74620;SDS011;64861;47.546;19.254;2023-04-24T02:55:11;14.00;;;6.78;;
74620;SDS011;64861;47.546;19.254;2023-04-24T02:57:37;13.55;;;6.25;;
74620;SDS011;64861;47.546;19.254;2023-04-24T03:00:03;14.60;;;5.93;;
74620;SDS011;64861;47.546;19.254;2023-04-24T03:02:32;14.88;;;6.78;;
74620;SDS011;64861;47.546;19.254;2023-04-24T03:04:57;13.75;;;6.97;;
74620;SDS011;64861;47.546;19.254;2023-04-24T03:07:22;12.75;;;6.32;;
74620;SDS011;64861;47.546;19.254;2023-04-24T03:09:49;14.07;;;6.85;;
74620;SDS011;64861;47.546;19.254;2023-04-24T03:12:14;13.23;;;6.32;;
74620;SDS011;64861;47.546;19.254;2023-04-24T03:14:42;13.43;;;6.70;;
74620;SDS011;64861;47.546;19.254;2023-04-24T03:17:07;13.60;;;6.13;;
74620;SDS011;64861;47.546;19.254;2023-04-24T03:19:32;13.35;;;6.25;;
74620;SDS011;64861;47.546;19.254;2023-04-24T03:21:58;12.50;;;5.75;;
74620;SDS011;64861;47.546;19.254;2023-04-24T03:24:23;11.95;;;5.85;;
74620;SDS011;64861;47.546;19.254;2023-04-24T03:26:49;12.45;;;5.65;;
74620;SDS011;64861;47.546;19.254;2023-04-24T03:29:15;11.30;;;5.47;;
74620;SDS011;64861;47.546;19.254;2023-04-24T03:31:40;10.75;;;4.85;;
74620;SDS011;64861;47.546;19.254;2023-04-24T03:34:06;14.88;;;6.10;;
74620;SDS011;64861;47.546;19.254;2023-04-24T03:36:31;10.43;;;5.55;;
74620;SDS011;64861;47.546;19.254;2023-04-24T03:38:57;12.60;;;5.43;;
74620;SDS011;64861;47.546;19.254;2023-04-24T03:41:22;11.15;;;5.70;;
74620;SDS011;64861;47.546;19.254;2023-04-24T03:43:48;12.30;;;5.72;;
74620;SDS011;64861;47.546;19.254;2023-04-24T03:46:13;12.93;;;5.60;;
74620;SDS011;64861;47.546;19.254;2023-04-24T03:48:40;13.55;;;5.30;;
74620;SDS011;64861;47.546;19.254;2023-04-24T03:51:05;10.57;;;5.28;;
74620;SDS011;64861;47.546;19.254;2023-04-24T03:53:31;11.30;;;4.88;;
74620;SDS011;64861;47.546;19.254;2023-04-24T03:55:56;13.52;;;5.63;;
74620;SDS011;64861;47.546;19.254;2023-04-24T03:58:22;11.45;;;5.10;;
74620;SDS011;64861;47.546;19.254;2023-04-24T04:00:47;10.30;;;5.25;;
74620;SDS011;64861;47.546;19.254;2023-04-24T04:03:13;13.95;;;5.38;;
74620;SDS011;64861;47.546;19.254;2023-04-24T04:05:39;10.88;;;4.90;;
74620;SDS011;64861;47.546;19.254;2023-04-24T04:08:05;11.75;;;5.20;;
74620;SDS011;64861;47.546;19.254;2023-04-24T04:10:30;10.43;;;4.78;;
74620;SDS011;64861;47.546;19.254;2023-04-24T04:12:56;9.23;;;4.68;;
74620;SDS011;64861;47.546;19.254;2023-04-24T04:15:21;9.90;;;5.22;;
74620;SDS011;64861;47.546;19.254;2023-04-24T04:17:47;9.68;;;4.72;;
74620;SDS011;64861;47.546;19.254;2023-04-24T04:20:12;8.85;;;4.57;;
74620;SDS011;64861;47.546;19.254;2023-04-24T04:22:38;9.18;;;4.63;;
74620;SDS011;64861;47.546;19.254;2023-04-24T04:25:04;10.25;;;5.10;;
74620;SDS011;64861;47.546;19.254;2023-04-24T04:27:30;14.10;;;4.78;;
74620;SDS011;64861;47.546;19.254;2023-04-24T04:30:03;9.07;;;4.78;;
74620;SDS011;64861;47.546;19.254;2023-04-24T04:32:32;11.05;;;4.70;;
74620;SDS011;64861;47.546;19.254;2023-04-24T04:34:58;11.15;;;5.07;;
74620;SDS011;64861;47.546;19.254;2023-04-24T04:37:28;9.30;;;4.30;;
74620;SDS011;64861;47.546;19.254;2023-04-24T04:39:54;14.63;;;4.65;;
74620;SDS011;64861;47.546;19.254;2023-04-24T04:42:19;14.02;;;4.88;;
74620;SDS011;64861;47.546;19.254;2023-04-24T04:44:45;20.00;;;4.65;;
74620;SDS011;64861;47.546;19.254;2023-04-24T04:47:10;12.55;;;4.63;;
74620;SDS011;64861;47.546;19.254;2023-04-24T04:49:37;17.02;;;4.80;;
74620;SDS011;64861;47.546;19.254;2023-04-24T04:52:03;10.27;;;4.32;;
74620;SDS011;64861;47.546;19.254;2023-04-24T04:54:29;8.98;;;4.15;;
74620;SDS011;64861;47.546;19.254;2023-04-24T04:56:54;8.20;;;4.30;;
74620;SDS011;64861;47.546;19.254;2023-04-24T04:59:20;11.90;;;4.38;;
74620;SDS011;64861;47.546;19.254;2023-04-24T05:01:45;13.27;;;4.40;;
74620;SDS011;64861;47.546;19.254;2023-04-24T05:04:11;11.65;;;4.45;;
74620;SDS011;64861;47.546;19.254;2023-04-24T05:06:36;8.57;;;4.00;;
74620;SDS011;64861;47.546;19.254;2023-04-24T05:09:02;12.18;;;4.05;;
74620;SDS011;64861;47.546;19.254;2023-04-24T05:11:28;11.18;;;4.07;;
74620;SDS011;64861;47.546;19.254;2023-04-24T05:13:54;16.92;;;4.30;;
74620;SDS011;64861;47.546;19.254;2023-04-24T05:16:20;9.65;;;4.38;;
74620;SDS011;64861;47.546;19.254;2023-04-24T05:18:46;14.07;;;4.30;;
74620;SDS011;64861;47.546;19.254;2023-04-24T05:21:11;17.85;;;4.38;;
74620;SDS011;64861;47.546;19.254;2023-04-24T05:23:37;21.38;;;4.22;;
74620;SDS011;64861;47.546;19.254;2023-04-24T05:26:02;16.77;;;4.13;;
74620;SDS011;64861;47.546;19.254;2023-04-24T05:28:28;23.63;;;4.18;;
74620;SDS011;64861;47.546;19.254;2023-04-24T05:30:54;15.27;;;3.92;;
74620;SDS011;64861;47.546;19.254;2023-04-24T05:33:20;20.88;;;4.60;;
74620;SDS011;64861;47.546;19.254;2023-04-24T05:35:47;13.93;;;4.43;;
74620;SDS011;64861;47.546;19.254;2023-04-24T05:38:13;25.20;;;4.47;;
74620;SDS011;64861;47.546;19.254;2023-04-24T05:40:39;19.83;;;4.13;;
74620;SDS011;64861;47.546;19.254;2023-04-24T05:43:05;22.67;;;4.70;;
74620;SDS011;64861;47.546;19.254;2023-04-24T05:45:30;15.13;;;3.70;;
74620;SDS011;64861;47.546;19.254;2023-04-24T05:47:56;17.63;;;4.40;;
74620;SDS011;64861;47.546;19.254;2023-04-24T05:50:22;18.98;;;4.00;;
74620;SDS011;64861;47.546;19.254;2023-04-24T05:52:47;19.83;;;4.45;;
74620;SDS011;64861;47.546;19.254;2023-04-24T05:55:13;21.42;;;4.30;;
74620;SDS011;64861;47.546;19.254;2023-04-24T05:57:38;18.13;;;4.10;;
74620;SDS011;64861;47.546;19.254;2023-04-24T06:00:04;28.80;;;4.82;;
74620;SDS011;64861;47.546;19.254;2023-04-24T06:02:31;25.33;;;4.63;;
74620;SDS011;64861;47.546;19.254;2023-04-24T06:04:58;22.15;;;4.60;;
74620;SDS011;64861;47.546;19.254;2023-04-24T06:07:24;21.10;;;5.10;;
74620;SDS011;64861;47.546;19.254;2023-04-24T06:09:53;27.00;;;3.95;;
74620;SDS011;64861;47.546;19.254;2023-04-24T06:12:19;46.30;;;5.13;;
74620;SDS011;64861;47.546;19.254;2023-04-24T06:14:44;33.35;;;5.93;;
74620;SDS011;64861;47.546;19.254;2023-04-24T06:17:10;27.75;;;4.72;;
74620;SDS011;64861;47.546;19.254;2023-04-24T06:19:35;25.02;;;4.75;;
74620;SDS011;64861;47.546;19.254;2023-04-24T06:22:01;20.15;;;4.72;;
74620;SDS011;64861;47.546;19.254;2023-04-24T06:24:29;15.50;;;4.38;;
74620;SDS011;64861;47.546;19.254;2023-04-24T06:26:55;22.00;;;5.00;;
74620;SDS011;64861;47.546;19.254;2023-04-24T06:29:22;26.55;;;6.15;;
74620;SDS011;64861;47.546;19.254;2023-04-24T06:31:48;19.65;;;4.35;;
74620;SDS011;64861;47.546;19.254;2023-04-24T06:34:13;39.38;;;5.80;;
74620;SDS011;64861;47.546;19.254;2023-04-24T06:36:39;25.55;;;5.65;;
74620;SDS011;64861;47.546;19.254;2023-04-24T06:39:04;45.22;;;7.50;;
74620;SDS011;64861;47.546;19.254;2023-04-24T06:41:30;59.40;;;7.25;;
74620;SDS011;64861;47.546;19.254;2023-04-24T06:43:55;52.85;;;6.95;;
74620;SDS011;64861;47.546;19.254;2023-04-24T06:46:21;41.83;;;6.45;;
74620;SDS011;64861;47.546;19.254;2023-04-24T06:48:49;55.85;;;6.95;;
74620;SDS011;64861;47.546;19.254;2023-04-24T06:51:15;45.92;;;6.88;;
74620;SDS011;64861;47.546;19.254;2023-04-24T06:53:42;36.38;;;6.05;;
74620;SDS011;64861;47.546;19.254;2023-04-24T06:56:08;31.05;;;5.43;;
74620;SDS011;64861;47.546;19.254;2023-04-24T06:58:33;37.47;;;5.18;;
74620;SDS011;64861;47.546;19.254;2023-04-24T07:00:59;27.30;;;4.97;;
74620;SDS011;64861;47.546;19.254;2023-04-24T07:03:24;29.00;;;6.00;;
74620;SDS011;64861;47.546;19.254;2023-04-24T07:05:50;42.85;;;5.53;;
74620;SDS011;64861;47.546;19.254;2023-04-24T07:08:16;28.90;;;4.95;;
74620;SDS011;64861;47.546;19.254;2023-04-24T07:10:43;36.25;;;5.72;;
74620;SDS011;64861;47.546;19.254;2023-04-24T07:13:09;30.90;;;5.15;;
74620;SDS011;64861;47.546;19.254;2023-04-24T07:15:35;34.72;;;6.35;;
74620;SDS011;64861;47.546;19.254;2023-04-24T07:18:00;40.22;;;5.68;;
74620;SDS011;64861;47.546;19.254;2023-04-24T07:20:26;25.02;;;4.78;;
74620;SDS011;64861;47.546;19.254;2023-04-24T07:22:51;28.75;;;4.95;;
74620;SDS011;64861;47.546;19.254;2023-04-24T07:25:19;24.38;;;4.70;;
74620;SDS011;64861;47.546;19.254;2023-04-24T07:27:44;26.20;;;5.18;;
74620;SDS011;64861;47.546;19.254;2023-04-24T07:30:10;30.23;;;6.13;;
74620;SDS011;64861;47.546;19.254;2023-04-24T07:32:36;25.77;;;5.10;;
74620;SDS011;64861;47.546;19.254;2023-04-24T07:35:01;42.25;;;5.45;;
74620;SDS011;64861;47.546;19.254;2023-04-24T07:37:27;27.35;;;5.25;;
74620;SDS011;64861;47.546;19.254;2023-04-24T07:39:53;24.17;;;4.63;;
74620;SDS011;64861;47.546;19.254;2023-04-24T07:42:19;28.48;;;5.05;;
74620;SDS011;64861;47.546;19.254;2023-04-24T07:44:44;34.55;;;5.65;;
74620;SDS011;64861;47.546;19.254;2023-04-24T07:47:12;29.20;;;5.25;;
74620;SDS011;64861;47.546;19.254;2023-04-24T07:49:41;26.17;;;5.28;;
74620;SDS011;64861;47.546;19.254;2023-04-24T07:52:07;30.05;;;5.03;;
74620;SDS011;64861;47.546;19.254;2023-04-24T07:54:32;28.10;;;5.35;;
74620;SDS011;64861;47.546;19.254;2023-04-24T07:56:57;33.30;;;5.10;;
74620;SDS011;64861;47.546;19.254;2023-04-24T07:59:23;31.25;;;5.05;;
74620;SDS011;64861;47.546;19.254;2023-04-24T08:01:48;23.33;;;4.47;;
74620;SDS011;64861;47.546;19.254;2023-04-24T08:04:14;27.08;;;5.40;;
74620;SDS011;64861;47.546;19.254;2023-04-24T08:06:39;34.78;;;5.10;;
74620;SDS011;64861;47.546;19.254;2023-04-24T08:09:05;32.63;;;5.43;;
74620;SDS011;64861;47.546;19.254;2023-04-24T08:11:31;23.27;;;4.95;;
74620;SDS011;64861;47.546;19.254;2023-04-24T08:13:57;24.38;;;4.53;;
74620;SDS011;64861;47.546;19.254;2023-04-24T08:16:22;21.75;;;4.82;;
74620;SDS011;64861;47.546;19.254;2023-04-24T08:18:49;26.15;;;4.85;;
74620;SDS011;64861;47.546;19.254;2023-04-24T08:21:15;20.08;;;5.10;;
74620;SDS011;64861;47.546;19.254;2023-04-24T08:23:42;32.17;;;5.85;;
74620;SDS011;64861;47.546;19.254;2023-04-24T08:26:08;19.67;;;5.28;;
74620;SDS011;64861;47.546;19.254;2023-04-24T08:28:34;18.85;;;4.55;;
74620;SDS011;64861;47.546;19.254;2023-04-24T08:30:59;26.00;;;5.40;;
74620;SDS011;64861;47.546;19.254;2023-04-24T08:33:24;25.08;;;5.38;;
74620;SDS011;64861;47.546;19.254;2023-04-24T08:35:50;25.10;;;4.82;;
74620;SDS011;64861;47.546;19.254;2023-04-24T08:38:16;20.10;;;5.10;;
74620;SDS011;64861;47.546;19.254;2023-04-24T08:40:42;26.23;;;5.30;;
74620;SDS011;64861;47.546;19.254;2023-04-24T08:43:08;18.77;;;4.85;;
74620;SDS011;64861;47.546;19.254;2023-04-24T08:45:35;17.05;;;4.38;;
74620;SDS011;64861;47.546;19.254;2023-04-24T08:48:01;20.85;;;4.40;;
74620;SDS011;64861;47.546;19.254;2023-04-24T08:50:27;19.90;;;4.75;;
74620;SDS011;64861;47.546;19.254;2023-04-24T08:52:54;16.30;;;4.25;;
74620;SDS011;64861;47.546;19.254;2023-04-24T08:55:20;14.80;;;4.70;;
74620;SDS011;64861;47.546;19.254;2023-04-24T08:57:49;15.98;;;3.67;;
74620;SDS011;64861;47.546;19.254;2023-04-24T09:00:18;16.02;;;4.18;;
74620;SDS011;64861;47.546;19.254;2023-04-24T09:02:45;19.13;;;4.40;;
74620;SDS011;64861;47.546;19.254;2023-04-24T09:05:13;17.98;;;4.45;;
74620;SDS011;64861;47.546;19.254;2023-04-24T09:07:41;16.88;;;4.20;;
74620;SDS011;64861;47.546;19.254;2023-04-24T09:10:10;11.98;;;3.83;;
74620;SDS011;64861;47.546;19.254;2023-04-24T09:12:36;10.32;;;3.70;;
74620;SDS011;64861;47.546;19.254;2023-04-24T09:15:02;11.65;;;3.65;;
74620;SDS011;64861;47.546;19.254;2023-04-24T09:17:30;14.75;;;3.70;;
74620;SDS011;64861;47.546;19.254;2023-04-24T09:19:56;21.23;;;3.60;;
74620;SDS011;64861;47.546;19.254;2023-04-24T09:22:21;15.13;;;3.63;;
74620;SDS011;64861;47.546;19.254;2023-04-24T09:24:47;12.60;;;3.00;;
74620;SDS011;64861;47.546;19.254;2023-04-24T09:27:13;10.50;;;3.50;;
74620;SDS011;64861;47.546;19.254;2023-04-24T09:29:53;15.68;;;3.97;;
74620;SDS011;64861;47.546;19.254;2023-04-24T09:32:23;15.05;;;3.25;;
74620;SDS011;64861;47.546;19.254;2023-04-24T09:35:12;12.00;;;3.88;;
74620;SDS011;64861;47.546;19.254;2023-04-24T09:37:42;8.82;;;3.53;;
74620;SDS011;64861;47.546;19.254;2023-04-24T09:42:44;13.30;;;2.90;;
74620;SDS011;64861;47.546;19.254;2023-04-24T09:45:12;8.35;;;3.40;;
74620;SDS011;64861;47.546;19.254;2023-04-24T09:47:38;9.27;;;3.13;;
74620;SDS011;64861;47.546;19.254;2023-04-24T09:50:11;10.98;;;3.03;;
74620;SDS011;64861;47.546;19.254;2023-04-24T09:52:44;11.70;;;3.35;;
74620;SDS011;64861;47.546;19.254;2023-04-24T09:55:29;9.38;;;2.83;;
74620;SDS011;64861;47.546;19.254;2023-04-24T09:57:58;13.55;;;3.15;;
74620;SDS011;64861;47.546;19.254;2023-04-24T10:00:29;10.35;;;3.20;;
74620;SDS011;64861;47.546;19.254;2023-04-24T10:03:00;10.30;;;3.08;;
74620;SDS011;64861;47.546;19.254;2023-04-24T10:05:28;9.02;;;3.00;;
74620;SDS011;64861;47.546;19.254;2023-04-24T10:08:00;10.45;;;2.67;;
74620;SDS011;64861;47.546;19.254;2023-04-24T10:10:45;10.05;;;2.90;;
74620;SDS011;64861;47.546;19.254;2023-04-24T10:13:12;9.80;;;3.20;;
74620;SDS011;64861;47.546;19.254;2023-04-24T10:15:40;8.63;;;3.00;;
74620;SDS011;64861;47.546;19.254;2023-04-24T10:18:07;9.13;;;3.13;;
74620;SDS011;64861;47.546;19.254;2023-04-24T10:20:34;7.28;;;2.67;;
74620;SDS011;64861;47.546;19.254;2023-04-24T10:23:03;10.05;;;2.67;;
74620;SDS011;64861;47.546;19.254;2023-04-24T10:25:30;11.50;;;3.13;;
74620;SDS011;64861;47.546;19.254;2023-04-24T10:27:57;8.02;;;2.67;;
74620;SDS011;64861;47.546;19.254;2023-04-24T10:30:28;10.32;;;3.13;;
74620;SDS011;64861;47.546;19.254;2023-04-24T10:32:59;7.85;;;3.15;;
74620;SDS011;64861;47.546;19.254;2023-04-24T10:35:26;9.10;;;2.70;;
74620;SDS011;64861;47.546;19.254;2023-04-24T10:37:56;9.95;;;3.08;;
74620;SDS011;64861;47.546;19.254;2023-04-24T10:40:27;10.82;;;3.50;;
74620;SDS011;64861;47.546;19.254;2023-04-24T10:42:56;12.95;;;3.13;;
74620;SDS011;64861;47.546;19.254;2023-04-24T10:45:22;8.13;;;3.08;;
74620;SDS011;64861;47.546;19.254;2023-04-24T10:50:26;10.68;;;2.75;;
74620;SDS011;64861;47.546;19.254;2023-04-24T10:52:55;6.93;;;2.70;;
74620;SDS011;64861;47.546;19.254;2023-04-24T10:58:12;8.48;;;2.70;;
74620;SDS011;64861;47.546;19.254;2023-04-24T11:00:40;10.52;;;2.67;;
74620;SDS011;64861;47.546;19.254;2023-04-24T11:03:07;7.55;;;2.78;;
74620;SDS011;64861;47.546;19.254;2023-04-24T11:11:02;6.72;;;2.60;;
74620;SDS011;64861;47.546;19.254;2023-04-24T11:16:26;6.72;;;2.67;;
74620;SDS011;64861;47.546;19.254;2023-04-24T11:21:39;10.50;;;2.40;;
74620;SDS011;64861;47.546;19.254;2023-04-24T11:24:49;7.18;;;2.63;;
74620;SDS011;64861;47.546;19.254;2023-04-24T11:32:25;8.00;;;2.80;;
74620;SDS011;64861;47.546;19.254;2023-04-24T11:35:13;8.35;;;2.35;;
74620;SDS011;64861;47.546;19.254;2023-04-24T11:37:40;6.88;;;2.20;;
74620;SDS011;64861;47.546;19.254;2023-04-24T11:40:11;7.82;;;2.50;;
74620;SDS011;64861;47.546;19.254;2023-04-24T11:42:43;9.63;;;2.80;;
74620;SDS011;64861;47.546;19.254;2023-04-24T11:45:10;5.20;;;2.35;;
74620;SDS011;64861;47.546;19.254;2023-04-24T11:47:37;8.25;;;2.58;;
74620;SDS011;64861;47.546;19.254;2023-04-24T11:50:03;10.30;;;2.38;;
74620;SDS011;64861;47.546;19.254;2023-04-24T11:52:30;7.72;;;2.47;;
74620;SDS011;64861;47.546;19.254;2023-04-24T11:54:56;9.02;;;2.30;;
74620;SDS011;64861;47.546;19.254;2023-04-24T11:57:23;8.13;;;2.42;;
74620;SDS011;64861;47.546;19.254;2023-04-24T11:59:51;5.68;;;2.10;;
74620;SDS011;64861;47.546;19.254;2023-04-24T12:02:23;12.48;;;4.10;;
74620;SDS011;64861;47.546;19.254;2023-04-24T12:04:50;13.60;;;7.75;;
74620;SDS011;64861;47.546;19.254;2023-04-24T12:07:17;12.95;;;6.13;;
74620;SDS011;64861;47.546;19.254;2023-04-24T12:09:46;15.68;;;8.23;;
74620;SDS011;64861;47.546;19.254;2023-04-24T12:12:20;19.75;;;10.07;;
74620;SDS011;64861;47.546;19.254;2023-04-24T12:14:49;19.30;;;11.18;;
74620;SDS011;64861;47.546;19.254;2023-04-24T12:17:17;19.40;;;12.15;;
74620;SDS011;64861;47.546;19.254;2023-04-24T12:19:48;22.08;;;11.25;;
74620;SDS011;64861;47.546;19.254;2023-04-24T12:22:15;20.08;;;12.15;;
74620;SDS011;64861;47.546;19.254;2023-04-24T12:24:57;18.40;;;10.52;;
74620;SDS011;64861;47.546;19.254;2023-04-24T12:27:33;21.20;;;10.30;;
74620;SDS011;64861;47.546;19.254;2023-04-24T12:30:00;18.08;;;9.90;;
74620;SDS011;64861;47.546;19.254;2023-04-24T12:32:26;20.83;;;11.30;;
74620;SDS011;64861;47.546;19.254;2023-04-24T12:34:52;20.60;;;10.00;;
74620;SDS011;64861;47.546;19.254;2023-04-24T12:37:19;21.73;;;10.30;;
74620;SDS011;64861;47.546;19.254;2023-04-24T12:40:06;19.23;;;10.70;;
74620;SDS011;64861;47.546;19.254;2023-04-24T12:42:34;17.75;;;9.82;;
74620;SDS011;64861;47.546;19.254;2023-04-24T12:45:04;15.63;;;9.20;;
74620;SDS011;64861;47.546;19.254;2023-04-24T12:47:31;19.88;;;8.68;;
74620;SDS011;64861;47.546;19.254;2023-04-24T12:49:57;15.68;;;8.93;;
74620;SDS011;64861;47.546;19.254;2023-04-24T12:52:24;18.15;;;8.27;;
74620;SDS011;64861;47.546;19.254;2023-04-24T12:54:52;18.30;;;8.38;;
74620;SDS011;64861;47.546;19.254;2023-04-24T12:57:18;18.33;;;8.02;;
74620;SDS011;64861;47.546;19.254;2023-04-24T12:59:44;14.57;;;7.47;;
74620;SDS011;64861;47.546;19.254;2023-04-24T13:02:10;15.48;;;8.10;;
74620;SDS011;64861;47.546;19.254;2023-04-24T13:04:36;14.25;;;7.68;;
74620;SDS011;64861;47.546;19.254;2023-04-24T13:07:02;18.48;;;7.28;;
74620;SDS011;64861;47.546;19.254;2023-04-24T13:09:27;15.82;;;6.47;;
74620;SDS011;64861;47.546;19.254;2023-04-24T13:11:53;17.20;;;7.28;;
74620;SDS011;64861;47.546;19.254;2023-04-24T13:14:21;14.45;;;6.75;;
74620;SDS011;64861;47.546;19.254;2023-04-24T13:16:47;13.77;;;6.88;;
74620;SDS011;64861;47.546;19.254;2023-04-24T13:19:12;18.40;;;7.15;;
74620;SDS011;64861;47.546;19.254;2023-04-24T13:21:37;15.25;;;6.80;;
74620;SDS011;64861;47.546;19.254;2023-04-24T13:24:03;51.45;;;7.30;;
74620;SDS011;64861;47.546;19.254;2023-04-24T13:26:30;37.28;;;7.47;;
74620;SDS011;64861;47.546;19.254;2023-04-24T13:28:55;19.23;;;6.07;;
74620;SDS011;64861;47.546;19.254;2023-04-24T13:31:21;23.23;;;6.13;;
74620;SDS011;64861;47.546;19.254;2023-04-24T13:33:47;18.33;;;5.30;;
74620;SDS011;64861;47.546;19.254;2023-04-24T13:36:13;24.25;;;6.40;;
74620;SDS011;64861;47.546;19.254;2023-04-24T13:38:38;17.60;;;5.28;;
74620;SDS011;64861;47.546;19.254;2023-04-24T13:41:03;15.45;;;5.28;;
74620;SDS011;64861;47.546;19.254;2023-04-24T13:43:29;18.65;;;5.22;;
74620;SDS011;64861;47.546;19.254;2023-04-24T13:45:55;13.52;;;4.95;;
74620;SDS011;64861;47.546;19.254;2023-04-24T13:48:20;13.70;;;5.40;;
74620;SDS011;64861;47.546;19.254;2023-04-24T13:50:46;17.98;;;5.20;;
74620;SDS011;64861;47.546;19.254;2023-04-24T13:53:13;14.13;;;4.90;;
74620;SDS011;64861;47.546;19.254;2023-04-24T13:55:39;10.73;;;4.75;;
74620;SDS011;64861;47.546;19.254;2023-04-24T13:58:05;12.70;;;4.70;;
74620;SDS011;64861;47.546;19.254;2023-04-24T14:00:31;12.80;;;4.53;;
74620;SDS011;64861;47.546;19.254;2023-04-24T14:02:57;11.15;;;4.63;;
74620;SDS011;64861;47.546;19.254;2023-04-24T14:05:22;10.18;;;4.45;;
74620;SDS011;64861;47.546;19.254;2023-04-24T14:07:48;10.50;;;4.07;;
74620;SDS011;64861;47.546;19.254;2023-04-24T14:10:13;10.52;;;3.85;;
74620;SDS011;64861;47.546;19.254;2023-04-24T14:12:39;12.70;;;3.92;;
74620;SDS011;64861;47.546;19.254;2023-04-24T14:15:05;11.82;;;4.00;;
74620;SDS011;64861;47.546;19.254;2023-04-24T14:17:31;12.43;;;3.72;;
74620;SDS011;64861;47.546;19.254;2023-04-24T14:19:56;10.27;;;3.90;;
74620;SDS011;64861;47.546;19.254;2023-04-24T14:22:24;19.05;;;4.15;;
74620;SDS011;64861;47.546;19.254;2023-04-24T14:24:50;13.20;;;3.92;;
74620;SDS011;64861;47.546;19.254;2023-04-24T14:27:15;26.13;;;4.72;;
74620;SDS011;64861;47.546;19.254;2023-04-24T14:29:41;15.25;;;4.10;;
74620;SDS011;64861;47.546;19.254;2023-04-24T14:32:06;13.63;;;3.92;;
74620;SDS011;64861;47.546;19.254;2023-04-24T14:34:33;14.60;;;3.65;;
74620;SDS011;64861;47.546;19.254;2023-04-24T14:36:59;12.48;;;3.60;;
74620;SDS011;64861;47.546;19.254;2023-04-24T14:39:25;13.45;;;3.40;;
74620;SDS011;64861;47.546;19.254;2023-04-24T14:41:50;17.13;;;3.67;;